TUI335 LFPG-LDPL
Flight info
| Callsign | TUI335 |
|---|---|
| Flight time | N/A |
| Altitude | 35000 |
| Route | LANVI DCT DEVDI DCT SUXAN DCT ROTAR |
| Aircraft | B38M/M-SDE1FGHILORVWXY/HB1 |
Departure
| Time | 2026-04-30 21:14 |
|---|---|
| Airport | Charles de Gaulle International Airport (LFPG) |
Arrival
| Time | N/A |
|---|---|
| Airport | Pula Airport (LDPL) |
| Time | Latitude | Longitude | Altitude | Speed | Heading |
|---|---|---|---|---|---|
| 2026-04-30 20:49 | 49.01623 | 2.53844 | 361 ft | 0 kts | 169° |
| 2026-04-30 20:56 | 49.01624 | 2.53844 | 361 ft | 0 kts | 169° |
| 2026-04-30 21:04 | 49.01631 | 2.53842 | 363 ft | 3 kts | 169° |
| 2026-04-30 21:04 | 49.01648 | 2.53837 | 359 ft | 3 kts | 156° |
| 2026-04-30 21:04 | 49.01655 | 2.53794 | 363 ft | 2 kts | 36° |
| 2026-04-30 21:05 | 49.01652 | 2.53791 | 361 ft | 0 kts | 26° |
| 2026-04-30 21:08 | 49.01655 | 2.53793 | 363 ft | 4 kts | 26° |
| 2026-04-30 21:08 | 49.01668 | 2.53788 | 359 ft | 2 kts | 312° |
| 2026-04-30 21:08 | 49.01658 | 2.53726 | 363 ft | 12 kts | 232° |
| 2026-04-30 21:08 | 49.01626 | 2.53618 | 357 ft | 9 kts | 312° |
| 2026-04-30 21:09 | 49.01693 | 2.53590 | 360 ft | 11 kts | 355° |
| 2026-04-30 21:09 | 49.01780 | 2.53580 | 360 ft | 14 kts | 356° |
| 2026-04-30 21:09 | 49.01857 | 2.53500 | 358 ft | 16 kts | 279° |
| 2026-04-30 21:09 | 49.01854 | 2.53318 | 357 ft | 18 kts | 266° |
| 2026-04-30 21:10 | 49.01846 | 2.53114 | 357 ft | 17 kts | 266° |
| 2026-04-30 21:10 | 49.01837 | 2.52922 | 357 ft | 19 kts | 266° |
| 2026-04-30 21:10 | 49.01829 | 2.52744 | 363 ft | 14 kts | 265° |
| 2026-04-30 21:10 | 49.01820 | 2.52579 | 357 ft | 17 kts | 265° |
| 2026-04-30 21:11 | 49.01822 | 2.52403 | 363 ft | 15 kts | 299° |
| 2026-04-30 21:11 | 49.01916 | 2.52349 | 357 ft | 16 kts | 356° |
| 2026-04-30 21:11 | 49.01954 | 2.52345 | 357 ft | 0 kts | 356° |
| 2026-04-30 21:11 | 49.01955 | 2.52345 | 357 ft | 1 kts | 356° |
| 2026-04-30 21:12 | 49.01975 | 2.52344 | 357 ft | 5 kts | 356° |
| 2026-04-30 21:12 | 49.02047 | 2.52337 | 357 ft | 15 kts | 357° |
| 2026-04-30 21:12 | 49.02119 | 2.52403 | 358 ft | 12 kts | 70° |
| 2026-04-30 21:12 | 49.02125 | 2.52451 | 358 ft | 0 kts | 84° |
| 2026-04-30 21:13 | 49.02129 | 2.52522 | 359 ft | 35 kts | 85° |
| 2026-04-30 21:13 | 49.02177 | 2.53403 | 363 ft | 129 kts | 85° |
| 2026-04-30 21:14 | 49.02262 | 2.55103 | 638 ft | 186 kts | 88° |
| 2026-04-30 21:14 | 49.02363 | 2.57264 | 1430 ft | 223 kts | 87° |
| 2026-04-30 21:14 | 49.02467 | 2.59763 | 2428 ft | 247 kts | 88° |
| 2026-04-30 21:14 | 49.02594 | 2.62337 | 3961 ft | 241 kts | 87° |
| 2026-04-30 21:15 | 49.02762 | 2.64924 | 5151 ft | 253 kts | 88° |
| 2026-04-30 21:15 | 49.02921 | 2.67688 | 6066 ft | 270 kts | 87° |
| 2026-04-30 21:15 | 49.03078 | 2.70569 | 7204 ft | 273 kts | 87° |
| 2026-04-30 21:15 | 49.03228 | 2.73482 | 8354 ft | 278 kts | 87° |
| 2026-04-30 21:16 | 49.03373 | 2.76441 | 9505 ft | 282 kts | 88° |
| 2026-04-30 21:16 | 49.03519 | 2.79441 | 10120 ft | 290 kts | 87° |
| 2026-04-30 21:16 | 49.03667 | 2.82500 | 10157 ft | 288 kts | 88° |
| 2026-04-30 21:16 | 49.03640 | 2.85531 | 10198 ft | 287 kts | 100° |
| 2026-04-30 21:17 | 49.03312 | 2.88582 | 10946 ft | 297 kts | 99° |
| 2026-04-30 21:17 | 49.03005 | 2.91796 | 11636 ft | 314 kts | 99° |
| 2026-04-30 21:17 | 49.02691 | 2.95136 | 12507 ft | 320 kts | 99° |
| 2026-04-30 21:17 | 49.02379 | 2.98480 | 13679 ft | 319 kts | 99° |
| 2026-04-30 21:18 | 49.02061 | 3.01874 | 14462 ft | 328 kts | 99° |
| 2026-04-30 21:18 | 49.01736 | 3.05342 | 15303 ft | 330 kts | 99° |
| 2026-04-30 21:18 | 49.01409 | 3.08816 | 16228 ft | 332 kts | 99° |
| 2026-04-30 21:18 | 49.01077 | 3.12339 | 16977 ft | 339 kts | 99° |
| 2026-04-30 21:19 | 49.00739 | 3.15908 | 17773 ft | 343 kts | 99° |
| 2026-04-30 21:19 | 49.00395 | 3.19519 | 18589 ft | 345 kts | 99° |
| 2026-04-30 21:19 | 49.00047 | 3.23176 | 19079 ft | 353 kts | 99° |
| 2026-04-30 21:19 | 48.99693 | 3.26873 | 19137 ft | 353 kts | 99° |
| 2026-04-30 21:20 | 48.99339 | 3.30554 | 19065 ft | 359 kts | 99° |
| 2026-04-30 21:20 | 48.98978 | 3.34295 | 19073 ft | 354 kts | 99° |
| 2026-04-30 21:20 | 48.98622 | 3.37990 | 19193 ft | 352 kts | 99° |
| 2026-04-30 21:20 | 48.98264 | 3.41680 | 19200 ft | 352 kts | 99° |
| 2026-04-30 21:21 | 48.97905 | 3.45363 | 19192 ft | 351 kts | 99° |
| 2026-04-30 21:21 | 48.97542 | 3.49075 | 19542 ft | 354 kts | 99° |
| 2026-04-30 21:21 | 48.96817 | 3.56464 | 20961 ft | 359 kts | 99° |
| 2026-04-30 21:22 | 48.96445 | 3.60228 | 21686 ft | 360 kts | 99° |
| 2026-04-30 21:22 | 48.95305 | 3.71696 | 23667 ft | 369 kts | 99° |
| 2026-04-30 21:23 | 48.94917 | 3.75580 | 24200 ft | 373 kts | 99° |
| 2026-04-30 21:23 | 48.94523 | 3.79495 | 24722 ft | 376 kts | 99° |
| 2026-04-30 21:23 | 48.93721 | 3.87436 | 25701 ft | 383 kts | 99° |
| 2026-04-30 21:24 | 48.93319 | 3.91401 | 26175 ft | 386 kts | 99° |
| 2026-04-30 21:24 | 48.92905 | 3.95465 | 26647 ft | 390 kts | 99° |
| 2026-04-30 21:24 | 48.92487 | 3.99551 | 27141 ft | 392 kts | 99° |
| 2026-04-30 21:24 | 48.92063 | 4.03684 | 27586 ft | 396 kts | 99° |
| 2026-04-30 21:25 | 48.91348 | 4.10619 | 28352 ft | 401 kts | 100° |
| 2026-04-30 21:25 | 48.90911 | 4.14832 | 28790 ft | 404 kts | 100° |
| 2026-04-30 21:25 | 48.90315 | 4.20462 | 29361 ft | 408 kts | 102° |
| 2026-04-30 21:26 | 48.88408 | 4.26995 | 30164 ft | 408 kts | 122° |
| 2026-04-30 21:26 | 48.87036 | 4.30806 | 30414 ft | 415 kts | 117° |
| 2026-04-30 21:27 | 48.84275 | 4.38581 | 31142 ft | 419 kts | 118° |
| 2026-04-30 21:27 | 48.82857 | 4.42474 | 31410 ft | 423 kts | 119° |
| 2026-04-30 21:27 | 48.81422 | 4.46391 | 31826 ft | 424 kts | 119° |
| 2026-04-30 21:28 | 48.78531 | 4.54249 | 32518 ft | 429 kts | 119° |
| 2026-04-30 21:28 | 48.77090 | 4.58157 | 32872 ft | 431 kts | 119° |
| 2026-04-30 21:28 | 48.74141 | 4.66134 | 33580 ft | 434 kts | 119° |
| 2026-04-30 21:29 | 48.72664 | 4.70120 | 34051 ft | 433 kts | 119° |
| 2026-04-30 21:29 | 48.68245 | 4.82013 | 35170 ft | 433 kts | 118° |
| 2026-04-30 21:30 | 48.65276 | 4.89970 | 35802 ft | 434 kts | 118° |
| 2026-04-30 21:31 | 48.60833 | 5.01834 | 36833 ft | 433 kts | 118° |
| 2026-04-30 21:31 | 48.57863 | 5.09738 | 37374 ft | 435 kts | 119° |
| 2026-04-30 21:32 | 48.54876 | 5.17660 | 38060 ft | 432 kts | 118° |
| 2026-04-30 21:32 | 48.53386 | 5.21603 | 38318 ft | 434 kts | 118° |
| 2026-04-30 21:32 | 48.50366 | 5.29579 | 38599 ft | 439 kts | 118° |
| 2026-04-30 21:33 | 48.48850 | 5.33574 | 38912 ft | 438 kts | 118° |
| 2026-04-30 21:33 | 48.45827 | 5.41520 | 39209 ft | 440 kts | 119° |
| 2026-04-30 21:34 | 48.42769 | 5.49534 | 39217 ft | 440 kts | 119° |
| 2026-04-30 21:34 | 48.38183 | 5.61509 | 39220 ft | 440 kts | 119° |
| 2026-04-30 21:35 | 48.35102 | 5.69524 | 39232 ft | 443 kts | 119° |
| 2026-04-30 21:35 | 48.32017 | 5.77534 | 39226 ft | 442 kts | 119° |
| 2026-04-30 21:36 | 48.29377 | 5.85803 | 39272 ft | 443 kts | 114° |
| 2026-04-30 21:37 | 48.24084 | 6.02460 | 39233 ft | 444 kts | 114° |
| 2026-04-30 21:37 | 48.21416 | 6.10792 | 39239 ft | 443 kts | 115° |
| 2026-04-30 21:38 | 48.18736 | 6.19130 | 39237 ft | 444 kts | 114° |
| 2026-04-30 21:38 | 48.16047 | 6.27470 | 39233 ft | 444 kts | 115° |
| 2026-04-30 21:39 | 48.13350 | 6.35805 | 39232 ft | 444 kts | 115° |
| 2026-04-30 21:39 | 48.10663 | 6.44084 | 39234 ft | 443 kts | 114° |
| 2026-04-30 21:40 | 48.07964 | 6.52374 | 39232 ft | 443 kts | 114° |
| 2026-04-30 21:40 | 48.05273 | 6.60610 | 39231 ft | 443 kts | 115° |
| 2026-04-30 21:41 | 48.02562 | 6.68881 | 39238 ft | 443 kts | 115° |
| 2026-04-30 21:41 | 47.99839 | 6.77165 | 39243 ft | 445 kts | 114° |
| 2026-04-30 21:42 | 47.97120 | 6.85404 | 39254 ft | 443 kts | 114° |
| 2026-04-30 21:42 | 47.94402 | 6.93622 | 39250 ft | 441 kts | 114° |
| 2026-04-30 21:43 | 47.91676 | 7.01830 | 39262 ft | 441 kts | 114° |
| 2026-04-30 21:43 | 47.88947 | 7.10026 | 39250 ft | 441 kts | 114° |
| 2026-04-30 21:44 | 47.86209 | 7.18220 | 39273 ft | 441 kts | 115° |
| 2026-04-30 21:44 | 47.83484 | 7.26349 | 39263 ft | 441 kts | 114° |
| 2026-04-30 21:45 | 47.80737 | 7.34518 | 39267 ft | 441 kts | 114° |
| 2026-04-30 21:45 | 47.77987 | 7.42675 | 39265 ft | 441 kts | 114° |
| 2026-04-30 21:46 | 47.75225 | 7.50846 | 39262 ft | 442 kts | 114° |
| 2026-04-30 21:46 | 47.72271 | 7.58836 | 39312 ft | 443 kts | 116° |
| 2026-04-30 21:47 | 47.69209 | 7.66826 | 39244 ft | 445 kts | 116° |
| 2026-04-30 21:47 | 47.66155 | 7.74822 | 39275 ft | 446 kts | 117° |
| 2026-04-30 21:48 | 47.63094 | 7.82812 | 39280 ft | 445 kts | 116° |
| 2026-04-30 21:48 | 47.60045 | 7.90744 | 39281 ft | 445 kts | 117° |
| 2026-04-30 21:49 | 47.56973 | 7.98715 | 39287 ft | 446 kts | 116° |
| 2026-04-30 21:49 | 47.53899 | 8.06670 | 39301 ft | 446 kts | 116° |
| 2026-04-30 21:50 | 47.50807 | 8.14643 | 39297 ft | 446 kts | 117° |
| 2026-04-30 21:50 | 47.47725 | 8.22567 | 39297 ft | 448 kts | 117° |
| 2026-04-30 21:51 | 47.44609 | 8.30557 | 39295 ft | 448 kts | 117° |
| 2026-04-30 21:51 | 47.41487 | 8.38539 | 39297 ft | 447 kts | 116° |
| 2026-04-30 21:52 | 47.38380 | 8.46458 | 39311 ft | 446 kts | 117° |
| 2026-04-30 21:52 | 47.35286 | 8.54322 | 39279 ft | 445 kts | 117° |
| 2026-04-30 21:53 | 47.32707 | 8.60859 | 39298 ft | 446 kts | 117° |
| 2026-04-30 21:53 | 47.29905 | 8.67942 | 39298 ft | 445 kts | 117° |
| 2026-04-30 21:54 | 47.27808 | 8.73232 | 39304 ft | 446 kts | 116° |
| 2026-04-30 21:54 | 47.24691 | 8.81075 | 39284 ft | 448 kts | 116° |
| 2026-04-30 21:55 | 47.21525 | 8.89019 | 39288 ft | 450 kts | 117° |
| 2026-04-30 21:55 | 47.18354 | 8.96953 | 39275 ft | 450 kts | 117° |
| 2026-04-30 21:56 | 47.15177 | 9.04878 | 39275 ft | 450 kts | 117° |
| 2026-04-30 21:56 | 47.12000 | 9.12780 | 39296 ft | 450 kts | 116° |
| 2026-04-30 21:57 | 47.08820 | 9.20667 | 39241 ft | 451 kts | 116° |
| 2026-04-30 21:57 | 47.05621 | 9.28577 | 39239 ft | 451 kts | 116° |
| 2026-04-30 21:58 | 47.02411 | 9.36492 | 39251 ft | 451 kts | 116° |
| 2026-04-30 21:58 | 46.99252 | 9.44259 | 39238 ft | 451 kts | 117° |
| 2026-04-30 21:59 | 46.96018 | 9.52187 | 39244 ft | 455 kts | 117° |
| 2026-04-30 22:00 | 46.91266 | 9.63796 | 39243 ft | 455 kts | 116° |
| 2026-04-30 22:00 | 46.86955 | 9.74285 | 39247 ft | 454 kts | 117° |
| 2026-04-30 22:01 | 46.84045 | 9.81343 | 39268 ft | 454 kts | 117° |
| 2026-04-30 22:01 | 46.81010 | 9.88682 | 39246 ft | 456 kts | 117° |
| 2026-04-30 22:02 | 46.78215 | 9.95428 | 39318 ft | 457 kts | 117° |
| 2026-04-30 22:02 | 46.75446 | 10.02089 | 39277 ft | 457 kts | 117° |
| 2026-04-30 22:03 | 46.72634 | 10.08843 | 39284 ft | 457 kts | 117° |
| 2026-04-30 22:03 | 46.69966 | 10.15232 | 39278 ft | 458 kts | 117° |
| 2026-04-30 22:04 | 46.67320 | 10.21559 | 39304 ft | 461 kts | 117° |
| 2026-04-30 22:05 | 46.62587 | 10.32840 | 39285 ft | 461 kts | 117° |
| 2026-04-30 22:05 | 46.59934 | 10.39148 | 39267 ft | 460 kts | 117° |
| 2026-04-30 22:06 | 46.56753 | 10.46680 | 39277 ft | 460 kts | 118° |
| 2026-04-30 22:06 | 46.51090 | 10.58005 | 39290 ft | 463 kts | 122° |
| 2026-04-30 22:07 | 46.47356 | 10.65531 | 39286 ft | 461 kts | 122° |
| 2026-04-30 22:07 | 46.43584 | 10.73125 | 39280 ft | 466 kts | 122° |
| 2026-04-30 22:08 | 46.39804 | 10.80713 | 39307 ft | 466 kts | 122° |
| 2026-04-30 22:08 | 46.36037 | 10.88254 | 39340 ft | 465 kts | 122° |
| 2026-04-30 22:09 | 46.32238 | 10.95839 | 39312 ft | 464 kts | 122° |
| 2026-04-30 22:09 | 46.28468 | 11.03347 | 39341 ft | 464 kts | 122° |
| 2026-04-30 22:10 | 46.24655 | 11.10918 | 39315 ft | 464 kts | 122° |
| 2026-04-30 22:10 | 46.20874 | 11.18407 | 39161 ft | 464 kts | 122° |
| 2026-04-30 22:11 | 46.17094 | 11.25874 | 38190 ft | 455 kts | 122° |
| 2026-04-30 22:11 | 46.15235 | 11.29541 | 37635 ft | 450 kts | 121° |
| 2026-04-30 22:11 | 46.13394 | 11.33165 | 37091 ft | 444 kts | 121° |
| 2026-04-30 22:12 | 46.11575 | 11.36742 | 36570 ft | 438 kts | 121° |
| 2026-04-30 22:12 | 46.09778 | 11.40271 | 36076 ft | 433 kts | 120° |
| 2026-04-30 22:12 | 46.08002 | 11.43754 | 35593 ft | 429 kts | 120° |
| 2026-04-30 22:12 | 46.06260 | 11.47167 | 35105 ft | 426 kts | 119° |
| 2026-04-30 22:13 | 46.04503 | 11.50606 | 34634 ft | 424 kts | 118° |